Latest Weather Observations for Davis*

IDT60801

Issued at 12:31 am EST Sunday 31 May 2015 (issued every 30 minutes, with the page automatically refreshed every 10 minutes)

About weather observations | Map of weather stations | Latest weather observations for ANT | Other Formats
Station Details ID: 300000 Name: DAVIS Lat: -68.57 Lon: 77.97 Height: 18.0 m
Data from the previous 72 hours. | See also: Recent months at Davis*
Date/Time
EST
Temp
°C
App
Temp
°C
Dew
Point
Rel
Hum
%
Delta-T
°C
Wind Press
QNH
hPa
Press
MSL
hPa
Rain
since 9 am
mm
Dir
 
Spd
km/h
Gust
km/h
Spd
kts
Gust
kts
31/12:30am -11.2 -16.5 -12.8 88 - E 11 15 6 8 993.4 - -
31/12:00am -11.3 -17.4 -12.9 88 - E 15 17 8 9 993.4 - -
 
Date/Time
EST
Temp
°C
App
Temp
°C
Dew
Point
Rel
Hum
%
Delta-T
°C
Wind Press
QNH
hPa
Press
MSL
hPa
Rain
since 9 am
mm
Dir
 
Spd
km/h
Gust
km/h
Spd
kts
Gust
kts
30/11:30pm -11.0 -16.7 -12.2 91 - E 13 17 7 9 993.4 - -
30/11:00pm -11.0 -15.9 -12.2 91 - E 9 13 5 7 993.4 - -
30/10:30pm -10.9 -17.0 -12.1 91 - E 15 17 8 9 993.4 - -
30/10:00pm -10.6 -16.3 -11.8 91 - E 13 15 7 8 993.4 993.8 -
30/09:30pm -10.9 -15.8 -12.3 89 - E 9 13 5 7 993.4 - -
30/09:00pm -10.5 -15.4 -12.2 87 - E 9 13 5 7 993.2 - -
30/08:30pm -10.5 -16.2 -12.4 86 - E 13 19 7 10 993.3 - -
30/08:00pm -9.7 -16.6 -10.7 92 - E 20 30 11 16 992.7 - -
30/07:30pm -9.8 -16.5 -11.0 91 - E 19 24 10 13 992.9 - -
30/07:00pm -9.7 -14.3 -13.0 77 - ENE 7 17 4 9 992.9 993.3 -
30/06:30pm -10.1 -15.1 -12.9 80 - E 9 17 5 9 992.8 - -
30/06:00pm -10.1 -16.2 -13.0 79 - NE 15 24 8 13 992.5 - -
30/05:30pm -10.1 -17.9 -13.2 78 - NE 24 32 13 17 992.5 - -
30/05:00pm -9.9 -18.1 -12.8 79 - NE 26 35 14 19 991.9 - -
30/04:30pm -9.8 -19.1 -12.6 80 - NE 32 48 17 26 991.3 - -
30/04:00pm -10.3 -18.9 -13.1 80 - NE 28 - 15 - - - -
30/03:30pm -10.0 -21.4 -13.2 77 - NE 43 57 23 31 990.6 - -
30/03:24pm -10.0 -20.7 -13.1 78 - NE 39 57 21 31 990.6 - -
30/03:00pm -10.2 -20.1 -12.8 81 - NE 35 52 19 28 990.5 - -
30/02:30pm -10.4 -20.7 -13.0 81 - NE 37 50 20 27 990.6 - -
30/02:00pm -10.4 -21.8 -12.9 82 - NE 43 56 23 30 990.5 - -
30/01:30pm -9.9 -21.9 -12.7 80 - NE 46 57 25 31 989.9 - -
30/01:07pm -9.8 -22.5 -12.3 82 - NE 50 69 27 37 989.6 - -
30/01:00pm -9.9 -22.6 -12.2 83 - NE 50 65 27 35 989.6 990.0 -
30/12:30pm -10.0 -21.9 -12.2 84 - NE 46 61 25 33 989.5 - -
30/12:00pm -9.8 -23.3 -12.0 84 - NE 54 69 29 37 989.4 - -
30/11:30am -9.9 -23.7 -11.8 86 - NE 56 74 30 40 989.4 - -
30/11:00am -10.2 -22.9 -11.8 88 - NE 50 70 27 38 988.7 - -
30/10:30am -10.0 -23.4 -11.6 88 - NE 54 72 29 39 988.7 - -
30/10:07am -10.1 -24.1 -11.8 87 - NE 57 76 31 41 988.4 - -
30/10:00am -10.0 -24.8 -11.7 87 - NE 61 76 33 41 988.0 988.4 -
30/09:30am -10.3 -25.5 -11.8 89 - NE 63 76 34 41 987.3 - -
30/09:00am -10.1 -23.5 -11.6 89 - NNE 54 70 29 38 987.4 - -
30/08:30am -10.1 -24.5 -11.6 89 - NE 59 82 32 44 987.3 - -
30/08:00am -10.2 -25.3 -11.7 89 - NE 63 82 34 44 986.8 - -
30/07:52am -9.9 -25.8 -11.4 89 - NE 67 85 36 46 986.7 - -
30/07:30am -10.0 -25.9 -11.0 92 - NE 67 82 36 44 986.4 - -
30/07:00am -9.9 -26.3 -10.9 92 - NE 70 93 38 50 986.2 986.5 -
30/06:32am -9.8 -26.2 -10.7 93 - NE 70 89 38 48 986.1 - -
30/06:30am -9.7 -26.5 -10.6 93 - NE 72 89 39 48 985.9 - -
30/06:00am -9.6 -26.8 -10.5 93 - NE 74 93 40 50 985.7 - -
30/05:56am -9.6 -27.1 -10.5 93 - NE 76 95 41 51 985.8 - -
30/05:30am -9.5 -27.8 -10.4 93 - NE 80 96 43 52 984.9 - -
30/05:17am -9.5 -26.6 -10.4 93 - NE 74 93 40 50 985.3 - -
30/05:00am -9.5 -27.0 -10.4 93 - NE 76 89 41 48 985.2 - -
30/04:30am -9.3 -26.8 -10.2 93 - NE 76 95 41 51 985.1 - -
30/04:00am -9.3 -27.9 -10.2 93 - NE 82 102 44 55 985.0 985.3 -
30/03:30am -9.2 -26.7 -10.1 93 - NE 76 98 41 53 985.1 - -
30/03:00am -9.2 -26.3 -10.1 93 - NE 74 106 40 57 984.4 - -
30/02:31am -9.3 -27.6 -10.2 93 - NE 80 98 43 53 984.4 - -
30/02:30am -9.3 -27.9 -10.2 93 - NE 82 98 44 53 984.0 - -
30/02:00am -9.3 -27.6 -10.2 93 - NE 80 107 43 58 984.4 - -
30/01:30am -9.3 -26.8 -10.2 93 - NE 76 107 41 58 984.2 - -
30/01:00am -9.1 -27.0 -10.0 93 - NE 78 104 42 56 983.3 983.6 -
30/12:30am -9.1 -25.5 -10.0 93 - NE 70 102 38 55 981.9 - -
30/12:25am -9.1 -24.1 -10.0 93 - NE 63 83 34 45 983.1 - -
30/12:21am -9.0 -22.9 -9.8 94 - NE 57 72 31 39 983.5 - -
30/12:00am -8.6 -26.0 -9.4 94 - NE 76 96 41 52 982.8 - -
 
Date/Time
EST
Temp
°C
App
Temp
°C
Dew
Point
Rel
Hum
%
Delta-T
°C
Wind Press
QNH
hPa
Press
MSL
hPa
Rain
since 9 am
mm
Dir
 
Spd
km/h
Gust
km/h
Spd
kts
Gust
kts
29/11:30pm -8.4 -27.5 -9.2 94 - NE 85 107 46 58 981.5 - -
29/11:06pm -8.2 -25.6 -9.0 94 - NE 76 95 41 51 982.1 - -
29/11:00pm -8.2 -26.0 -9.0 94 - NE 78 95 42 51 981.7 - -
29/10:30pm -7.8 -26.5 -8.6 94 - NE 83 102 45 55 981.3 - -
29/10:00pm -7.5 -26.6 -8.2 95 - NE 85 113 46 61 980.3 980.6 -
29/09:55pm -7.8 -26.9 -8.6 94 - NE 85 113 46 61 980.4 - -
29/09:30pm -7.5 -28.5 -8.3 94 - NE 95 120 51 65 978.4 - -
29/09:00pm -7.6 -29.1 -8.3 95 - NE 98 128 53 69 977.9 - -
29/08:30pm -7.8 -31.1 -8.6 94 - NE 107 148 58 80 977.3 - -
29/08:11pm -7.7 -30.0 -8.5 94 - NE 102 150 55 81 975.7 - -
29/08:09pm -7.7 -29.3 -8.5 94 - NE 98 141 53 76 977.9 - -
29/08:06pm -7.6 -30.3 -8.4 94 - NE 104 141 56 76 975.9 - -
29/08:00pm -7.7 -29.6 -8.5 94 - NE 100 141 54 76 978.0 - -
29/07:30pm -7.7 -28.9 -8.5 94 - NE 96 137 52 74 976.8 - -
29/07:28pm -7.6 -28.2 -8.3 95 - NE 93 137 50 74 976.2 - -
29/07:15pm -7.5 -30.2 -8.3 94 - NE 104 128 56 69 978.2 - -
29/07:14pm -7.5 -31.9 -8.3 94 - NE 113 128 61 69 977.2 - -
29/07:08pm -7.3 -25.4 -8.0 95 - NE 80 117 43 63 977.4 - -
29/07:03pm -7.4 -24.0 -8.1 95 - NE 72 93 39 50 979.7 - -
29/07:00pm -7.3 -27.9 -8.1 94 - NE 93 128 50 69 978.9 979.2 -
29/06:30pm -7.2 -27.4 -7.9 95 - NE 91 122 49 66 978.9 - -
29/06:00pm -7.2 -27.0 -7.9 95 - NE 89 113 48 61 978.6 - -
29/05:30pm -7.2 -28.1 -7.9 95 - NE 95 119 51 64 978.4 - -
29/05:00pm -7.2 -26.2 -7.9 95 - NE 85 115 46 62 979.1 - -
29/04:30pm -7.1 -26.1 -7.8 95 - NE 85 107 46 58 980.1 - -
29/04:00pm -7.0 -24.7 -7.7 95 - NE 78 113 42 61 980.7 981.0 -
29/03:55pm -6.9 -23.8 -7.6 95 - NE 74 113 40 61 980.5 - -
29/03:30pm -7.0 -23.0 -7.8 94 - NE 69 89 37 48 981.4 - -
29/03:00pm -6.9 -21.3 -7.6 95 - NE 61 80 33 43 982.2 - -
29/02:33pm -6.6 -21.8 -7.3 95 - NE 65 83 35 45 981.9 - -
29/02:30pm -6.7 -22.3 -7.4 95 - NE 67 83 36 45 981.8 - -
29/02:03pm -6.7 -22.8 -7.4 95 - NE 70 93 38 50 980.9 - -
29/02:00pm -6.7 -22.7 -7.4 95 - NE 69 85 37 46 981.2 - -
29/01:58pm -6.7 -21.9 -7.4 95 - NE 65 85 35 46 981.3 - -
29/01:56pm -6.5 -21.7 -7.2 95 - NE 65 72 35 39 981.2 - -
29/01:30pm -6.1 -25.0 -6.8 95 - NE 85 111 46 60 979.9 - -
29/01:13pm -6.2 -26.3 -6.9 95 - NE 91 119 49 64 979.3 - -
29/01:00pm -6.2 -27.2 -6.9 95 - NE 96 124 52 67 977.2 977.5 -
29/12:30pm -5.9 -27.3 -6.4 96 - NE 98 117 53 63 976.1 - -
29/12:21pm -5.7 -27.0 -6.2 96 - NE 98 117 53 63 976.1 - -
29/12:20pm -5.8 -26.8 -6.3 96 - ENE 96 111 52 60 976.2 - -
29/12:00pm -5.5 -22.7 -6.2 95 - NE 76 95 41 51 978.2 - -
29/11:30am -6.1 -22.9 -6.8 95 - ENE 74 98 40 53 980.0 - -
29/11:00am -6.4 -21.6 -7.3 93 - ENE 65 89 35 48 980.8 - -
29/10:30am -6.8 -23.0 -7.9 92 - ENE 70 91 38 49 982.1 - -
29/10:17am -7.0 -24.7 -8.1 92 - ENE 78 96 42 52 982.6 - -
29/10:15am -6.8 -24.9 -7.7 93 - ENE 80 96 43 52 982.4 - -
29/10:08am -6.8 -21.3 -7.9 92 - ENE 61 83 33 45 983.3 - -
29/10:00am -6.8 -20.9 -8.0 91 - ENE 59 72 32 39 984.1 984.4 -
29/09:41am -6.3 -18.7 -7.8 89 - ENE 50 72 27 39 984.7 - -
29/09:30am -6.2 -18.6 -8.0 87 - ENE 50 63 27 34 985.6 - -
29/09:20am -6.2 -19.0 -8.1 86 - ENE 52 70 28 38 985.9 - -
29/09:00am -6.1 -19.2 -7.8 88 - ENE 54 70 29 38 986.1 - -
29/08:55am -6.1 -20.5 -7.6 89 - ENE 61 70 33 38 985.8 - -
29/08:33am -6.2 -17.2 -7.7 89 - ENE 43 65 23 35 986.7 - -
29/08:30am -6.2 -16.5 -7.9 88 - ENE 39 54 21 29 987.2 - -
29/08:09am -6.3 -15.9 -8.4 85 - ENE 35 54 19 29 988.1 - -
29/08:00am -7.0 -16.6 -9.2 84 - ENE 35 44 19 24 988.6 - -
29/07:30am -6.8 -15.5 -8.7 86 - ENE 30 52 16 28 989.2 - -
29/07:28am -6.4 -14.6 -8.3 86 - ENE 28 52 15 28 989.0 - -
29/07:00am -7.6 -15.9 -9.4 87 - NE 28 37 15 20 990.4 990.8 -
29/06:58am -7.6 -15.9 -9.4 87 - NE 28 37 15 20 990.5 - -
29/06:30am -9.8 -14.6 -10.7 93 - E 9 13 5 7 991.0 - -
29/06:00am -12.3 -17.7 -13.2 93 - ESE 11 15 6 8 991.3 - -
29/05:30am -14.3 -19.4 -15.7 89 - SE 9 11 5 6 992.2 - -
29/05:00am -15.1 -20.6 -16.6 88 - SE 11 13 6 7 992.8 - -
29/04:30am -15.5 -20.3 -17.2 87 - SE 7 11 4 6 993.4 - -
29/04:00am -15.5 -19.4 -17.3 86 - ESE 2 6 1 3 994.0 994.4 -
29/03:30am -15.7 -20.5 -17.6 85 - E 7 7 4 4 994.2 - -
29/03:00am -15.9 -21.1 -18.0 84 - E 9 9 5 5 994.9 - -
29/02:30am -16.3 -21.5 -18.4 84 - E 9 11 5 6 995.3 - -
29/02:00am -16.4 -19.9 -18.6 83 - CALM 0 6 0 3 995.8 - -
29/01:30am -16.6 -21.3 -18.7 84 - ENE 6 7 3 4 995.8 - -
29/01:00am -17.1 -22.0 -19.0 85 - E 7 9 4 5 995.9 996.3 -
29/12:30am -16.8 -22.4 -18.8 84 - ENE 11 15 6 8 996.3 - -
29/12:00am -16.5 -23.3 -18.8 82 - NNE 17 20 9 11 996.6 - -
 
Date/Time
EST
Temp
°C
App
Temp
°C
Dew
Point
Rel
Hum
%
Delta-T
°C
Wind Press
QNH
hPa
Press
MSL
hPa
Rain
since 9 am
mm
Dir
 
Spd
km/h
Gust
km/h
Spd
kts
Gust
kts
28/11:30pm -16.6 -22.2 -18.4 86 - NE 11 13 6 7 997.0 - -
28/11:00pm -16.6 -22.6 -18.5 85 - NNE 13 17 7 9 997.3 - -
28/10:30pm -16.5 -22.1 -18.1 87 - NNE 11 13 6 7 997.4 - -
28/10:00pm -17.6 -22.9 -19.4 86 - SE 9 11 5 6 997.5 997.9 -
28/09:30pm -17.9 -23.6 -19.8 85 - SE 11 13 6 7 997.9 - -
28/09:00pm -18.3 -23.6 -20.1 86 - ESE 9 11 5 6 998.5 - -
28/08:30pm -18.8 -24.5 -20.7 85 - ESE 11 11 6 6 998.7 - -
28/08:00pm -18.9 -24.6 -20.8 85 - E 11 11 6 6 999.0 - -
28/07:30pm -18.2 -23.9 -20.0 86 - ESE 11 13 6 7 999.1 - -
28/07:00pm -19.0 -23.8 -20.9 85 - SE 6 7 3 4 999.4 999.7 -
28/06:30pm -19.2 -23.2 -21.1 85 - ESE 2 7 1 4 999.5 - -
28/06:00pm -19.4 -23.0 -21.3 85 - CALM 0 0 0 0 999.7 - -
28/05:30pm -19.3 -22.9 -21.2 85 - CALM 0 0 0 0 1000.0 - -
28/05:00pm -19.3 -22.9 -21.2 85 - CALM 0 0 0 0 1000.0 - -
28/04:30pm -19.6 -24.0 -21.5 85 - ESE 4 6 2 3 1000.0 - -
28/04:00pm -19.9 -24.7 -21.8 85 - E 6 7 3 4 999.7 1000.0 -
28/03:30pm -20.1 -24.9 -22.1 84 - E 6 7 3 4 999.7 - -
28/03:00pm -20.4 -25.2 -22.4 84 - ENE 6 7 3 4 999.6 - -
28/02:30pm -20.6 -25.6 -22.4 85 - NE 7 9 4 5 999.5 - -
28/02:00pm -20.8 -26.2 -22.6 85 - NE 9 13 5 7 999.5 - -
28/01:30pm -20.9 -25.9 -22.7 85 - NNE 7 9 4 5 999.6 - -
28/01:00pm -21.0 -26.4 -22.7 86 - NE 9 11 5 6 999.6 999.9 -
28/12:30pm -21.2 -26.6 -22.9 86 - NE 9 11 5 6 999.5 - -
28/12:00pm -21.3 -27.1 -23.0 86 - NE 11 13 6 7 999.3 - -
28/11:30am -21.4 -26.8 -23.1 86 - NNE 9 11 5 6 999.1 - -
28/11:00am -21.6 -27.4 -23.3 86 - NE 11 13 6 7 998.7 - -
28/10:30am -21.8 -27.6 -23.6 85 - NNE 11 13 6 7 998.5 - -
28/10:00am -22.1 -28.3 -24.3 82 - NE 13 15 7 8 998.3 998.6 -
28/09:30am -22.2 -28.4 -24.4 82 - NNE 13 15 7 8 998.3 - -
28/09:00am -22.3 -28.1 -24.5 82 - N 11 13 6 7 998.4 - -
28/08:30am -22.4 -28.2 -24.6 82 - NNE 11 13 6 7 997.9 - -
28/08:00am -22.7 -28.5 -24.9 82 - NNE 11 13 6 7 997.7 - -
28/07:30am -22.7 -28.5 -24.8 83 - NNE 11 15 6 8 997.7 - -
28/07:00am -22.9 -29.1 -25.1 82 - NNE 13 15 7 8 997.4 997.8 -
28/06:30am -23.4 -29.2 -25.7 81 - NNE 11 13 6 7 997.2 - -
28/06:00am -23.7 -29.9 -26.0 81 - N 13 17 7 9 997.1 - -
28/05:30am -23.5 -30.5 -25.8 81 - N 17 19 9 10 996.5 - -
28/05:00am -23.8 -30.4 -26.1 81 - N 15 17 8 9 996.2 - -
28/04:30am -22.7 -28.9 -24.9 82 - N 13 15 7 8 995.8 - -
28/04:00am -22.7 -29.3 -24.8 83 - N 15 15 8 8 995.4 995.8 -

Other Formats:

Comma delimited format used in spreadsheet applications
http://www.bom.gov.au/fwo/IDT60803/IDT60803.89571.axf

JavaScript Object Notation format (JSON) in row-major order
http://www.bom.gov.au/fwo/IDT60803/IDT60803.89571.json